sensor_id;sensor_type;location;lat;lon;timestamp;temperature;humidity
79489;SHT31;68949;53.176;18.088;2023-07-08T00:01:17;16.25;63.63
79489;SHT31;68949;53.176;18.088;2023-07-08T00:03:47;16.26;63.56
79489;SHT31;68949;53.176;18.088;2023-07-08T00:06:17;16.25;63.60
79489;SHT31;68949;53.176;18.088;2023-07-08T00:08:49;16.24;63.87
79489;SHT31;68949;53.176;18.088;2023-07-08T00:11:16;16.24;63.93
79489;SHT31;68949;53.176;18.088;2023-07-08T00:13:43;16.20;64.74
79489;SHT31;68949;53.176;18.088;2023-07-08T00:16:11;16.16;64.62
79489;SHT31;68949;53.176;18.088;2023-07-08T00:18:44;16.14;64.15
79489;SHT31;68949;53.176;18.088;2023-07-08T00:21:13;16.11;64.12
79489;SHT31;68949;53.176;18.088;2023-07-08T00:23:52;16.09;64.24
79489;SHT31;68949;53.176;18.088;2023-07-08T00:26:25;16.04;64.51
79489;SHT31;68949;53.176;18.088;2023-07-08T00:28:56;15.96;64.60
79489;SHT31;68949;53.176;18.088;2023-07-08T00:31:23;15.93;64.58
79489;SHT31;68949;53.176;18.088;2023-07-08T00:33:52;15.88;64.68
79489;SHT31;68949;53.176;18.088;2023-07-08T00:36:22;15.86;64.65
79489;SHT31;68949;53.176;18.088;2023-07-08T00:38:51;15.83;65.26
79489;SHT31;68949;53.176;18.088;2023-07-08T00:41:28;15.80;65.55
79489;SHT31;68949;53.176;18.088;2023-07-08T00:44:00;15.71;66.09
79489;SHT31;68949;53.176;18.088;2023-07-08T00:51:37;15.44;66.83
79489;SHT31;68949;53.176;18.088;2023-07-08T00:54:10;15.29;67.45
79489;SHT31;68949;53.176;18.088;2023-07-08T00:59:21;15.01;69.04
79489;SHT31;68949;53.176;18.088;2023-07-08T01:02:01;14.98;69.08
79489;SHT31;68949;53.176;18.088;2023-07-08T01:04:44;14.96;69.22
79489;SHT31;68949;53.176;18.088;2023-07-08T01:07:24;14.87;69.34
79489;SHT31;68949;53.176;18.088;2023-07-08T01:09:55;14.80;69.29
79489;SHT31;68949;53.176;18.088;2023-07-08T01:12:30;14.81;69.00
79489;SHT31;68949;53.176;18.088;2023-07-08T01:15:03;14.85;69.38
79489;SHT31;68949;53.176;18.088;2023-07-08T01:17:33;14.86;70.01
79489;SHT31;68949;53.176;18.088;2023-07-08T01:20:02;14.93;69.68
79489;SHT31;68949;53.176;18.088;2023-07-08T01:22:39;14.91;69.63
79489;SHT31;68949;53.176;18.088;2023-07-08T01:25:08;14.99;69.54
79489;SHT31;68949;53.176;18.088;2023-07-08T01:27:38;14.98;69.65
79489;SHT31;68949;53.176;18.088;2023-07-08T01:30:09;14.88;70.16
79489;SHT31;68949;53.176;18.088;2023-07-08T01:32:39;14.87;69.98
79489;SHT31;68949;53.176;18.088;2023-07-08T01:35:12;14.89;69.52
79489;SHT31;68949;53.176;18.088;2023-07-08T01:37:41;14.86;69.27
79489;SHT31;68949;53.176;18.088;2023-07-08T01:42:55;14.79;69.36
79489;SHT31;68949;53.176;18.088;2023-07-08T01:45:25;14.72;69.54
79489;SHT31;68949;53.176;18.088;2023-07-08T01:48:02;14.68;69.64
79489;SHT31;68949;53.176;18.088;2023-07-08T01:50:35;14.66;69.80
79489;SHT31;68949;53.176;18.088;2023-07-08T01:53:21;14.66;70.26
79489;SHT31;68949;53.176;18.088;2023-07-08T01:55:57;14.67;70.32
79489;SHT31;68949;53.176;18.088;2023-07-08T01:58:26;14.69;70.22
79489;SHT31;68949;53.176;18.088;2023-07-08T02:00:54;14.70;70.86
79489;SHT31;68949;53.176;18.088;2023-07-08T02:03:23;14.73;70.36
79489;SHT31;68949;53.176;18.088;2023-07-08T02:05:50;14.72;70.47
79489;SHT31;68949;53.176;18.088;2023-07-08T02:08:16;14.74;70.58
79489;SHT31;68949;53.176;18.088;2023-07-08T02:10:46;14.75;70.59
79489;SHT31;68949;53.176;18.088;2023-07-08T02:13:17;14.63;70.69
79489;SHT31;68949;53.176;18.088;2023-07-08T02:15:45;14.54;71.10
79489;SHT31;68949;53.176;18.088;2023-07-08T02:18:12;14.49;71.67
79489;SHT31;68949;53.176;18.088;2023-07-08T02:20:39;14.50;71.27
79489;SHT31;68949;53.176;18.088;2023-07-08T02:23:06;14.50;70.96
79489;SHT31;68949;53.176;18.088;2023-07-08T02:25:32;14.52;70.87
79489;SHT31;68949;53.176;18.088;2023-07-08T02:27:59;14.55;71.12
79489;SHT31;68949;53.176;18.088;2023-07-08T02:30:26;14.51;71.20
79489;SHT31;68949;53.176;18.088;2023-07-08T02:32:53;14.45;71.03
79489;SHT31;68949;53.176;18.088;2023-07-08T02:35:24;14.42;71.10
79489;SHT31;68949;53.176;18.088;2023-07-08T02:37:54;14.41;71.36
79489;SHT31;68949;53.176;18.088;2023-07-08T02:40:22;14.47;71.34
79489;SHT31;68949;53.176;18.088;2023-07-08T02:42:51;14.56;71.17
79489;SHT31;68949;53.176;18.088;2023-07-08T02:45:18;14.58;71.29
79489;SHT31;68949;53.176;18.088;2023-07-08T02:47:45;14.54;71.41
79489;SHT31;68949;53.176;18.088;2023-07-08T02:50:12;14.38;71.66
79489;SHT31;68949;53.176;18.088;2023-07-08T02:52:39;14.29;71.84
79489;SHT31;68949;53.176;18.088;2023-07-08T02:55:06;14.24;71.84
79489;SHT31;68949;53.176;18.088;2023-07-08T02:57:33;14.27;71.62
79489;SHT31;68949;53.176;18.088;2023-07-08T03:00:00;14.36;71.43
79489;SHT31;68949;53.176;18.088;2023-07-08T03:02:31;14.57;71.21
79489;SHT31;68949;53.176;18.088;2023-07-08T03:04:57;14.93;70.70
79489;SHT31;68949;53.176;18.088;2023-07-08T03:07:25;15.31;70.09
79489;SHT31;68949;53.176;18.088;2023-07-08T03:09:52;15.70;69.67
79489;SHT31;68949;53.176;18.088;2023-07-08T03:12:18;16.06;69.32
79489;SHT31;68949;53.176;18.088;2023-07-08T03:14:45;16.50;68.71
79489;SHT31;68949;53.176;18.088;2023-07-08T03:17:12;16.90;67.79
79489;SHT31;68949;53.176;18.088;2023-07-08T03:19:38;17.23;67.16
79489;SHT31;68949;53.176;18.088;2023-07-08T03:22:05;17.44;66.74
79489;SHT31;68949;53.176;18.088;2023-07-08T03:24:34;17.57;66.45
79489;SHT31;68949;53.176;18.088;2023-07-08T03:27:02;17.68;66.18
79489;SHT31;68949;53.176;18.088;2023-07-08T03:29:32;17.82;65.83
79489;SHT31;68949;53.176;18.088;2023-07-08T03:31:59;17.90;65.66
79489;SHT31;68949;53.176;18.088;2023-07-08T03:34:26;17.95;65.47
79489;SHT31;68949;53.176;18.088;2023-07-08T03:36:54;18.05;65.26
79489;SHT31;68949;53.176;18.088;2023-07-08T03:39:22;18.22;65.20
79489;SHT31;68949;53.176;18.088;2023-07-08T03:41:52;18.40;64.71
79489;SHT31;68949;53.176;18.088;2023-07-08T03:44:20;18.50;64.34
79489;SHT31;68949;53.176;18.088;2023-07-08T03:46:47;18.71;64.20
79489;SHT31;68949;53.176;18.088;2023-07-08T03:49:17;18.95;63.89
79489;SHT31;68949;53.176;18.088;2023-07-08T03:51:48;19.17;63.55
79489;SHT31;68949;53.176;18.088;2023-07-08T03:54:18;19.46;62.99
79489;SHT31;68949;53.176;18.088;2023-07-08T03:56:47;19.80;62.30
79489;SHT31;68949;53.176;18.088;2023-07-08T03:59:14;20.08;61.79
79489;SHT31;68949;53.176;18.088;2023-07-08T04:01:41;20.33;61.26
79489;SHT31;68949;53.176;18.088;2023-07-08T04:04:13;20.66;60.88
79489;SHT31;68949;53.176;18.088;2023-07-08T04:06:42;20.99;60.36
79489;SHT31;68949;53.176;18.088;2023-07-08T04:09:13;21.36;59.79
79489;SHT31;68949;53.176;18.088;2023-07-08T04:11:39;21.61;58.76
79489;SHT31;68949;53.176;18.088;2023-07-08T04:14:07;21.77;58.10
79489;SHT31;68949;53.176;18.088;2023-07-08T04:16:43;22.01;57.72
79489;SHT31;68949;53.176;18.088;2023-07-08T04:19:24;22.20;57.29
79489;SHT31;68949;53.176;18.088;2023-07-08T04:21:53;22.40;56.95
79489;SHT31;68949;53.176;18.088;2023-07-08T04:24:20;22.55;56.65
79489;SHT31;68949;53.176;18.088;2023-07-08T04:26:47;22.66;56.74
79489;SHT31;68949;53.176;18.088;2023-07-08T04:29:15;22.76;56.48
79489;SHT31;68949;53.176;18.088;2023-07-08T04:31:45;22.82;56.44
79489;SHT31;68949;53.176;18.088;2023-07-08T04:34:13;22.89;56.38
79489;SHT31;68949;53.176;18.088;2023-07-08T04:36:42;23.01;56.41
79489;SHT31;68949;53.176;18.088;2023-07-08T04:39:10;23.20;56.10
79489;SHT31;68949;53.176;18.088;2023-07-08T04:41:37;23.43;55.61
79489;SHT31;68949;53.176;18.088;2023-07-08T04:44:07;23.62;55.16
79489;SHT31;68949;53.176;18.088;2023-07-08T04:46:48;23.74;54.70
79489;SHT31;68949;53.176;18.088;2023-07-08T04:49:20;23.94;54.17
79489;SHT31;68949;53.176;18.088;2023-07-08T04:51:50;24.17;53.71
79489;SHT31;68949;53.176;18.088;2023-07-08T04:54:18;24.34;53.11
79489;SHT31;68949;53.176;18.088;2023-07-08T04:56:45;24.48;52.54
79489;SHT31;68949;53.176;18.088;2023-07-08T04:59:17;24.52;52.10
79489;SHT31;68949;53.176;18.088;2023-07-08T05:01:47;24.61;51.76
79489;SHT31;68949;53.176;18.088;2023-07-08T05:04:15;24.71;51.36
79489;SHT31;68949;53.176;18.088;2023-07-08T05:06:43;24.82;51.25
79489;SHT31;68949;53.176;18.088;2023-07-08T05:09:10;24.85;50.91
79489;SHT31;68949;53.176;18.088;2023-07-08T05:11:37;24.88;50.69
79489;SHT31;68949;53.176;18.088;2023-07-08T05:14:04;24.97;50.56
79489;SHT31;68949;53.176;18.088;2023-07-08T05:16:33;25.04;50.44
79489;SHT31;68949;53.176;18.088;2023-07-08T05:19:02;25.16;50.31
79489;SHT31;68949;53.176;18.088;2023-07-08T05:21:29;25.33;49.85
79489;SHT31;68949;53.176;18.088;2023-07-08T05:24:00;25.50;49.62
79489;SHT31;68949;53.176;18.088;2023-07-08T05:26:31;25.70;49.20
79489;SHT31;68949;53.176;18.088;2023-07-08T05:28:59;25.88;48.67
79489;SHT31;68949;53.176;18.088;2023-07-08T05:31:26;26.03;48.58
79489;SHT31;68949;53.176;18.088;2023-07-08T05:33:53;26.20;48.41
79489;SHT31;68949;53.176;18.088;2023-07-08T05:36:20;26.33;47.89
79489;SHT31;68949;53.176;18.088;2023-07-08T05:38:47;26.45;47.74
79489;SHT31;68949;53.176;18.088;2023-07-08T05:41:14;26.47;47.14
79489;SHT31;68949;53.176;18.088;2023-07-08T05:43:41;26.31;47.02
79489;SHT31;68949;53.176;18.088;2023-07-08T05:46:08;26.39;47.14
79489;SHT31;68949;53.176;18.088;2023-07-08T05:48:35;26.45;46.54
79489;SHT31;68949;53.176;18.088;2023-07-08T05:51:03;26.26;46.84
79489;SHT31;68949;53.176;18.088;2023-07-08T05:53:29;26.28;46.71
79489;SHT31;68949;53.176;18.088;2023-07-08T05:55:56;26.36;46.03
79489;SHT31;68949;53.176;18.088;2023-07-08T05:58:23;26.44;45.93
79489;SHT31;68949;53.176;18.088;2023-07-08T06:00:54;26.56;45.70
79489;SHT31;68949;53.176;18.088;2023-07-08T06:03:23;26.67;45.25
79489;SHT31;68949;53.176;18.088;2023-07-08T06:05:50;26.68;45.15
79489;SHT31;68949;53.176;18.088;2023-07-08T06:08:16;26.79;45.06
79489;SHT31;68949;53.176;18.088;2023-07-08T06:10:44;26.98;44.56
79489;SHT31;68949;53.176;18.088;2023-07-08T06:13:12;27.13;44.79
79489;SHT31;68949;53.176;18.088;2023-07-08T06:15:39;27.28;44.46
79489;SHT31;68949;53.176;18.088;2023-07-08T06:18:08;27.48;44.12
79489;SHT31;68949;53.176;18.088;2023-07-08T06:20:35;27.69;43.78
79489;SHT31;68949;53.176;18.088;2023-07-08T06:23:02;27.89;42.78
79489;SHT31;68949;53.176;18.088;2023-07-08T06:25:29;27.90;42.63
79489;SHT31;68949;53.176;18.088;2023-07-08T06:27:57;27.97;42.08
79489;SHT31;68949;53.176;18.088;2023-07-08T06:30:24;27.89;42.00
79489;SHT31;68949;53.176;18.088;2023-07-08T06:32:51;27.90;41.76
79489;SHT31;68949;53.176;18.088;2023-07-08T06:35:18;27.73;41.86
79489;SHT31;68949;53.176;18.088;2023-07-08T06:37:44;27.75;41.69
79489;SHT31;68949;53.176;18.088;2023-07-08T06:40:11;27.74;41.49
79489;SHT31;68949;53.176;18.088;2023-07-08T06:42:38;27.85;40.98
79489;SHT31;68949;53.176;18.088;2023-07-08T06:45:14;27.88;40.34
79489;SHT31;68949;53.176;18.088;2023-07-08T06:47:41;27.78;40.01
79489;SHT31;68949;53.176;18.088;2023-07-08T06:50:08;27.66;40.15
79489;SHT31;68949;53.176;18.088;2023-07-08T06:52:35;27.65;39.72
79489;SHT31;68949;53.176;18.088;2023-07-08T06:55:07;27.67;39.69
79489;SHT31;68949;53.176;18.088;2023-07-08T06:57:36;27.50;39.85
79489;SHT31;68949;53.176;18.088;2023-07-08T07:00:07;27.39;40.32
79489;SHT31;68949;53.176;18.088;2023-07-08T07:02:37;27.44;40.05
79489;SHT31;68949;53.176;18.088;2023-07-08T07:05:05;27.49;39.81
79489;SHT31;68949;53.176;18.088;2023-07-08T07:07:32;27.31;39.10
79489;SHT31;68949;53.176;18.088;2023-07-08T07:10:00;27.34;39.04
79489;SHT31;68949;53.176;18.088;2023-07-08T07:12:27;27.26;39.09
79489;SHT31;68949;53.176;18.088;2023-07-08T07:14:54;27.12;39.72
79489;SHT31;68949;53.176;18.088;2023-07-08T07:17:22;27.14;39.72
79489;SHT31;68949;53.176;18.088;2023-07-08T07:19:51;27.23;39.62
79489;SHT31;68949;53.176;18.088;2023-07-08T07:22:18;27.28;38.91
79489;SHT31;68949;53.176;18.088;2023-07-08T07:24:45;27.28;38.78
79489;SHT31;68949;53.176;18.088;2023-07-08T07:27:12;27.30;38.40
79489;SHT31;68949;53.176;18.088;2023-07-08T07:29:49;27.36;39.02
79489;SHT31;68949;53.176;18.088;2023-07-08T07:32:18;27.52;38.17
79489;SHT31;68949;53.176;18.088;2023-07-08T07:34:48;27.52;37.52
79489;SHT31;68949;53.176;18.088;2023-07-08T07:37:17;27.49;38.05
79489;SHT31;68949;53.176;18.088;2023-07-08T07:39:48;27.58;38.11
79489;SHT31;68949;53.176;18.088;2023-07-08T07:42:15;27.59;37.22
79489;SHT31;68949;53.176;18.088;2023-07-08T07:44:44;27.35;36.35
79489;SHT31;68949;53.176;18.088;2023-07-08T07:47:11;27.19;36.77
79489;SHT31;68949;53.176;18.088;2023-07-08T07:49:39;27.11;36.77
79489;SHT31;68949;53.176;18.088;2023-07-08T07:52:06;27.20;37.50
79489;SHT31;68949;53.176;18.088;2023-07-08T07:54:33;27.31;37.35
79489;SHT31;68949;53.176;18.088;2023-07-08T07:57:00;27.32;36.52
79489;SHT31;68949;53.176;18.088;2023-07-08T07:59:27;27.26;37.05
79489;SHT31;68949;53.176;18.088;2023-07-08T08:01:53;27.35;37.33
79489;SHT31;68949;53.176;18.088;2023-07-08T08:04:20;27.31;35.99
79489;SHT31;68949;53.176;18.088;2023-07-08T08:06:47;27.31;36.29
79489;SHT31;68949;53.176;18.088;2023-07-08T08:09:14;27.37;35.94
79489;SHT31;68949;53.176;18.088;2023-07-08T08:11:41;27.37;36.14
79489;SHT31;68949;53.176;18.088;2023-07-08T08:14:08;27.46;36.67
79489;SHT31;68949;53.176;18.088;2023-07-08T08:16:34;27.58;36.51
79489;SHT31;68949;53.176;18.088;2023-07-08T08:19:01;27.80;36.72
79489;SHT31;68949;53.176;18.088;2023-07-08T08:21:28;28.00;36.38
79489;SHT31;68949;53.176;18.088;2023-07-08T08:23:54;28.05;35.47
79489;SHT31;68949;53.176;18.088;2023-07-08T08:26:21;27.86;35.03
79489;SHT31;68949;53.176;18.088;2023-07-08T08:28:48;27.70;34.81
79489;SHT31;68949;53.176;18.088;2023-07-08T08:31:14;27.54;34.77
79489;SHT31;68949;53.176;18.088;2023-07-08T08:33:41;27.62;35.66
79489;SHT31;68949;53.176;18.088;2023-07-08T08:36:08;27.83;35.60
79489;SHT31;68949;53.176;18.088;2023-07-08T08:38:35;27.96;35.43
79489;SHT31;68949;53.176;18.088;2023-07-08T08:41:15;28.04;34.83
79489;SHT31;68949;53.176;18.088;2023-07-08T08:43:45;27.93;34.04
79489;SHT31;68949;53.176;18.088;2023-07-08T08:51:32;27.70;33.39
79489;SHT31;68949;53.176;18.088;2023-07-08T08:53:59;27.62;33.45
79489;SHT31;68949;53.176;18.088;2023-07-08T08:56:28;27.62;33.88
79489;SHT31;68949;53.176;18.088;2023-07-08T09:02:42;27.75;33.21
79489;SHT31;68949;53.176;18.088;2023-07-08T09:05:22;27.73;33.83
79489;SHT31;68949;53.176;18.088;2023-07-08T09:10:57;27.76;33.30
79489;SHT31;68949;53.176;18.088;2023-07-08T09:13:32;27.82;33.72
79489;SHT31;68949;53.176;18.088;2023-07-08T09:19:23;28.16;33.32
79489;SHT31;68949;53.176;18.088;2023-07-08T09:22:05;28.30;32.83
79489;SHT31;68949;53.176;18.088;2023-07-08T09:24:44;28.31;32.47
79489;SHT31;68949;53.176;18.088;2023-07-08T09:27:17;28.47;33.20
79489;SHT31;68949;53.176;18.088;2023-07-08T09:29:45;28.45;32.65
79489;SHT31;68949;53.176;18.088;2023-07-08T09:32:17;28.28;32.88
79489;SHT31;68949;53.176;18.088;2023-07-08T09:34:50;28.42;33.00
79489;SHT31;68949;53.176;18.088;2023-07-08T09:40:03;28.77;32.94
79489;SHT31;68949;53.176;18.088;2023-07-08T09:42:55;28.76;32.59
79489;SHT31;68949;53.176;18.088;2023-07-08T09:45:29;28.68;32.51
79489;SHT31;68949;53.176;18.088;2023-07-08T09:48:18;28.84;32.54
79489;SHT31;68949;53.176;18.088;2023-07-08T09:50:51;29.11;32.69
79489;SHT31;68949;53.176;18.088;2023-07-08T09:53:20;29.38;32.24
79489;SHT31;68949;53.176;18.088;2023-07-08T09:55:49;29.41;31.15
79489;SHT31;68949;53.176;18.088;2023-07-08T09:58:24;29.34;31.63
79489;SHT31;68949;53.176;18.088;2023-07-08T10:00:57;29.23;31.07
79489;SHT31;68949;53.176;18.088;2023-07-08T10:03:31;29.27;31.72
79489;SHT31;68949;53.176;18.088;2023-07-08T10:06:05;29.22;31.59
79489;SHT31;68949;53.176;18.088;2023-07-08T10:08:46;29.26;31.72
79489;SHT31;68949;53.176;18.088;2023-07-08T10:11:25;29.43;30.91
79489;SHT31;68949;53.176;18.088;2023-07-08T10:14:04;29.61;31.80
79489;SHT31;68949;53.176;18.088;2023-07-08T10:16:39;29.52;31.43
79489;SHT31;68949;53.176;18.088;2023-07-08T10:19:09;29.50;31.35
79489;SHT31;68949;53.176;18.088;2023-07-08T10:21:50;29.44;30.92
79489;SHT31;68949;53.176;18.088;2023-07-08T10:28:00;29.13;30.50
79489;SHT31;68949;53.176;18.088;2023-07-08T10:36:36;29.25;31.02
79489;SHT31;68949;53.176;18.088;2023-07-08T10:45:12;29.30;29.81
79489;SHT31;68949;53.176;18.088;2023-07-08T10:56:16;29.01;29.33
79489;SHT31;68949;53.176;18.088;2023-07-08T10:58:58;28.95;29.99
79489;SHT31;68949;53.176;18.088;2023-07-08T11:04:38;29.44;30.88
79489;SHT31;68949;53.176;18.088;2023-07-08T11:10:20;29.64;30.25
79489;SHT31;68949;53.176;18.088;2023-07-08T11:13:00;29.77;30.12
79489;SHT31;68949;53.176;18.088;2023-07-08T11:18:58;30.05;30.11
79489;SHT31;68949;53.176;18.088;2023-07-08T11:21:41;29.85;28.87
79489;SHT31;68949;53.176;18.088;2023-07-08T11:27:05;29.81;30.05
79489;SHT31;68949;53.176;18.088;2023-07-08T11:29:46;29.78;29.72
79489;SHT31;68949;53.176;18.088;2023-07-08T11:32:21;29.92;30.32
79489;SHT31;68949;53.176;18.088;2023-07-08T11:34:52;29.94;29.66
79489;SHT31;68949;53.176;18.088;2023-07-08T11:37:22;29.91;30.33
79489;SHT31;68949;53.176;18.088;2023-07-08T11:39:59;29.88;29.21
79489;SHT31;68949;53.176;18.088;2023-07-08T11:42:50;29.74;29.42
79489;SHT31;68949;53.176;18.088;2023-07-08T11:50:57;30.00;29.67
79489;SHT31;68949;53.176;18.088;2023-07-08T11:55:57;30.28;30.21
79489;SHT31;68949;53.176;18.088;2023-07-08T12:03:47;29.45;29.93
79489;SHT31;68949;53.176;18.088;2023-07-08T12:08:53;29.26;29.77
79489;SHT31;68949;53.176;18.088;2023-07-08T12:11:31;29.22;29.32
79489;SHT31;68949;53.176;18.088;2023-07-08T12:14:01;29.27;29.26
79489;SHT31;68949;53.176;18.088;2023-07-08T12:16:31;29.43;30.60
79489;SHT31;68949;53.176;18.088;2023-07-08T12:18:59;29.67;29.95
79489;SHT31;68949;53.176;18.088;2023-07-08T12:21:33;29.82;29.44
79489;SHT31;68949;53.176;18.088;2023-07-08T12:24:05;29.74;29.49
79489;SHT31;68949;53.176;18.088;2023-07-08T12:26:33;29.56;29.06
79489;SHT31;68949;53.176;18.088;2023-07-08T12:29:01;29.45;29.31
79489;SHT31;68949;53.176;18.088;2023-07-08T12:31:28;29.40;29.47
79489;SHT31;68949;53.176;18.088;2023-07-08T12:33:58;29.26;29.60
79489;SHT31;68949;53.176;18.088;2023-07-08T12:36:27;29.23;29.02
79489;SHT31;68949;53.176;18.088;2023-07-08T12:38:56;29.16;29.36
79489;SHT31;68949;53.176;18.088;2023-07-08T12:41:28;28.97;29.53
79489;SHT31;68949;53.176;18.088;2023-07-08T12:44:00;29.04;29.89
79489;SHT31;68949;53.176;18.088;2023-07-08T12:46:27;29.28;30.21
79489;SHT31;68949;53.176;18.088;2023-07-08T12:48:55;29.42;29.98
79489;SHT31;68949;53.176;18.088;2023-07-08T12:51:24;29.19;29.43
79489;SHT31;68949;53.176;18.088;2023-07-08T12:53:53;29.03;29.60
79489;SHT31;68949;53.176;18.088;2023-07-08T12:56:21;29.09;30.71
79489;SHT31;68949;53.176;18.088;2023-07-08T12:58:51;29.32;30.56
79489;SHT31;68949;53.176;18.088;2023-07-08T13:01:24;29.43;29.55
79489;SHT31;68949;53.176;18.088;2023-07-08T13:03:56;29.37;29.27
79489;SHT31;68949;53.176;18.088;2023-07-08T13:06:31;29.33;28.33
79489;SHT31;68949;53.176;18.088;2023-07-08T13:09:46;29.31;28.09
79489;SHT31;68949;53.176;18.088;2023-07-08T13:11:59;29.28;27.81
79489;SHT31;68949;53.176;18.088;2023-07-08T13:14:39;29.20;27.99
79489;SHT31;68949;53.176;18.088;2023-07-08T13:17:13;29.25;28.50
79489;SHT31;68949;53.176;18.088;2023-07-08T13:19:42;29.34;28.83
79489;SHT31;68949;53.176;18.088;2023-07-08T13:22:18;29.45;28.99
79489;SHT31;68949;53.176;18.088;2023-07-08T13:24:48;29.43;28.16
79489;SHT31;68949;53.176;18.088;2023-07-08T13:27:25;29.43;28.53
79489;SHT31;68949;53.176;18.088;2023-07-08T13:29:53;29.41;28.57
79489;SHT31;68949;53.176;18.088;2023-07-08T13:32:31;29.50;29.25
79489;SHT31;68949;53.176;18.088;2023-07-08T13:34:58;29.57;28.80
79489;SHT31;68949;53.176;18.088;2023-07-08T13:37:25;29.56;28.56
79489;SHT31;68949;53.176;18.088;2023-07-08T13:39:52;29.44;28.36
79489;SHT31;68949;53.176;18.088;2023-07-08T13:42:20;29.35;28.82
79489;SHT31;68949;53.176;18.088;2023-07-08T13:44:47;29.39;29.09
79489;SHT31;68949;53.176;18.088;2023-07-08T13:47:23;29.46;29.69
79489;SHT31;68949;53.176;18.088;2023-07-08T13:49:56;29.63;29.65
79489;SHT31;68949;53.176;18.088;2023-07-08T13:52:33;29.65;29.84
79489;SHT31;68949;53.176;18.088;2023-07-08T13:55:01;29.77;29.76
79489;SHT31;68949;53.176;18.088;2023-07-08T13:57:42;29.90;29.62
79489;SHT31;68949;53.176;18.088;2023-07-08T14:00:09;30.01;29.66
79489;SHT31;68949;53.176;18.088;2023-07-08T14:02:43;29.85;29.31
79489;SHT31;68949;53.176;18.088;2023-07-08T14:05:12;29.63;29.27
79489;SHT31;68949;53.176;18.088;2023-07-08T14:07:41;29.53;29.42
79489;SHT31;68949;53.176;18.088;2023-07-08T14:10:11;29.38;28.92
79489;SHT31;68949;53.176;18.088;2023-07-08T14:12:39;29.39;29.26
79489;SHT31;68949;53.176;18.088;2023-07-08T14:15:07;29.49;29.17
79489;SHT31;68949;53.176;18.088;2023-07-08T14:17:35;29.47;29.18
79489;SHT31;68949;53.176;18.088;2023-07-08T14:20:09;29.52;29.54
79489;SHT31;68949;53.176;18.088;2023-07-08T14:22:42;29.51;28.96
79489;SHT31;68949;53.176;18.088;2023-07-08T14:25:09;29.52;29.33
79489;SHT31;68949;53.176;18.088;2023-07-08T14:27:36;29.55;29.33
79489;SHT31;68949;53.176;18.088;2023-07-08T14:34:05;29.49;29.37
79489;SHT31;68949;53.176;18.088;2023-07-08T14:36:42;29.49;29.21
79489;SHT31;68949;53.176;18.088;2023-07-08T14:39:13;29.51;29.22
79489;SHT31;68949;53.176;18.088;2023-07-08T14:41:43;29.63;29.76
79489;SHT31;68949;53.176;18.088;2023-07-08T14:44:19;29.75;29.45
79489;SHT31;68949;53.176;18.088;2023-07-08T14:47:08;29.67;28.75
79489;SHT31;68949;53.176;18.088;2023-07-08T14:49:40;29.47;28.90
79489;SHT31;68949;53.176;18.088;2023-07-08T14:52:07;29.41;29.44
79489;SHT31;68949;53.176;18.088;2023-07-08T14:54:34;29.36;29.32
79489;SHT31;68949;53.176;18.088;2023-07-08T14:57:02;29.32;29.37
79489;SHT31;68949;53.176;18.088;2023-07-08T14:59:32;29.26;29.52
79489;SHT31;68949;53.176;18.088;2023-07-08T15:02:02;29.25;29.17
79489;SHT31;68949;53.176;18.088;2023-07-08T15:04:48;29.19;29.33
79489;SHT31;68949;53.176;18.088;2023-07-08T15:07:15;29.21;29.66
79489;SHT31;68949;53.176;18.088;2023-07-08T15:09:42;29.29;29.72
79489;SHT31;68949;53.176;18.088;2023-07-08T15:12:09;29.27;29.27
79489;SHT31;68949;53.176;18.088;2023-07-08T15:14:38;29.17;29.25
79489;SHT31;68949;53.176;18.088;2023-07-08T15:17:09;29.07;29.33
79489;SHT31;68949;53.176;18.088;2023-07-08T15:19:43;29.18;30.20
79489;SHT31;68949;53.176;18.088;2023-07-08T15:22:11;29.30;29.61
79489;SHT31;68949;53.176;18.088;2023-07-08T15:24:38;29.42;29.91
79489;SHT31;68949;53.176;18.088;2023-07-08T15:27:05;29.50;30.05
79489;SHT31;68949;53.176;18.088;2023-07-08T15:29:38;29.65;29.82
79489;SHT31;68949;53.176;18.088;2023-07-08T15:32:12;29.63;29.06
79489;SHT31;68949;53.176;18.088;2023-07-08T15:34:40;29.54;29.20
79489;SHT31;68949;53.176;18.088;2023-07-08T15:37:07;29.39;28.82
79489;SHT31;68949;53.176;18.088;2023-07-08T15:39:34;29.26;28.95
79489;SHT31;68949;53.176;18.088;2023-07-08T15:42:00;29.24;29.14
79489;SHT31;68949;53.176;18.088;2023-07-08T15:44:28;29.26;29.16
79489;SHT31;68949;53.176;18.088;2023-07-08T15:46:55;29.24;29.12
79489;SHT31;68949;53.176;18.088;2023-07-08T15:49:22;29.24;29.12
79489;SHT31;68949;53.176;18.088;2023-07-08T15:51:53;29.22;29.30
79489;SHT31;68949;53.176;18.088;2023-07-08T15:54:20;29.20;29.29
79489;SHT31;68949;53.176;18.088;2023-07-08T15:56:48;29.17;29.36
79489;SHT31;68949;53.176;18.088;2023-07-08T15:59:25;29.12;29.23
79489;SHT31;68949;53.176;18.088;2023-07-08T16:01:57;29.00;29.25
79489;SHT31;68949;53.176;18.088;2023-07-08T16:04:31;28.96;29.38
79489;SHT31;68949;53.176;18.088;2023-07-08T16:07:01;28.94;29.45
79489;SHT31;68949;53.176;18.088;2023-07-08T16:09:28;29.03;29.26
79489;SHT31;68949;53.176;18.088;2023-07-08T16:11:55;29.01;29.16
79489;SHT31;68949;53.176;18.088;2023-07-08T16:14:22;28.94;29.24
79489;SHT31;68949;53.176;18.088;2023-07-08T16:16:49;28.79;29.14
79489;SHT31;68949;53.176;18.088;2023-07-08T16:19:16;28.71;29.38
79489;SHT31;68949;53.176;18.088;2023-07-08T16:21:43;28.65;29.70
79489;SHT31;68949;53.176;18.088;2023-07-08T16:24:10;28.55;29.56
79489;SHT31;68949;53.176;18.088;2023-07-08T16:26:37;28.38;29.73
79489;SHT31;68949;53.176;18.088;2023-07-08T16:29:05;28.31;30.14
79489;SHT31;68949;53.176;18.088;2023-07-08T16:31:39;28.28;30.19
79489;SHT31;68949;53.176;18.088;2023-07-08T16:34:07;28.32;30.45
79489;SHT31;68949;53.176;18.088;2023-07-08T16:36:36;28.43;30.52
79489;SHT31;68949;53.176;18.088;2023-07-08T16:39:04;28.48;30.50
79489;SHT31;68949;53.176;18.088;2023-07-08T16:41:32;28.51;30.30
79489;SHT31;68949;53.176;18.088;2023-07-08T16:44:02;28.52;30.12
79489;SHT31;68949;53.176;18.088;2023-07-08T16:46:42;28.52;30.29
79489;SHT31;68949;53.176;18.088;2023-07-08T16:49:10;28.52;30.12
79489;SHT31;68949;53.176;18.088;2023-07-08T16:51:38;28.44;30.19
79489;SHT31;68949;53.176;18.088;2023-07-08T16:54:23;28.35;30.37
79489;SHT31;68949;53.176;18.088;2023-07-08T16:56:50;28.29;30.60
79489;SHT31;68949;53.176;18.088;2023-07-08T16:59:17;28.21;30.49